createdAt,value
2022-12-25T00:01:17.651Z,100274.84
2022-12-25T00:06:14.296Z,100288.06
2022-12-25T00:11:17.080Z,100306.41
2022-12-25T00:16:18.037Z,100316.59
2022-12-25T00:21:15.427Z,100307.44
2022-12-25T00:26:15.137Z,100317.97
2022-12-25T00:31:14.954Z,100321.59
2022-12-25T00:36:13.132Z,100326.69
2022-12-25T00:41:38.646Z,100325.59
2022-12-25T00:46:35.645Z,100330.09
2022-12-25T00:51:32.899Z,100321.97
2022-12-25T00:56:29.376Z,100326.09
2022-12-25T01:01:25.805Z,100327.03
2022-12-25T01:06:22.259Z,100323.31
2022-12-25T01:11:18.564Z,100331.94
2022-12-25T01:16:16.342Z,100325.31
2022-12-25T01:21:18.057Z,100320.78
2022-12-25T01:26:15.832Z,100319.50
2022-12-25T01:31:15.138Z,100316.94
2022-12-25T01:36:15.515Z,100323.41
2022-12-25T01:41:14.790Z,100341.63
2022-12-25T01:46:11.181Z,100330.44
2022-12-25T01:51:24.487Z,100319.22
2022-12-25T01:56:20.947Z,100341.13
2022-12-25T02:01:17.702Z,100323.91
2022-12-25T02:06:14.183Z,100313.94
2022-12-25T02:11:33.214Z,100309.06
2022-12-25T02:16:35.392Z,100340.44
2022-12-25T02:22:06.504Z,100341.09
2022-12-25T02:27:11.281Z,100334.84
2022-12-25T02:32:31.112Z,100335.50
2022-12-25T02:37:46.439Z,100342.72
2022-12-25T02:43:14.925Z,100344.03
2022-12-25T02:48:31.403Z,100321.72
2022-12-25T02:53:47.647Z,100333.16
2022-12-25T02:59:04.610Z,100332.88
2022-12-25T03:04:24.907Z,100320.59
2022-12-25T03:09:44.982Z,100318.09
2022-12-25T03:15:00.052Z,100336.97
2022-12-25T03:20:14.929Z,100326.38
2022-12-25T03:25:30.032Z,100335.06
2022-12-25T03:31:13.304Z,100327.22
2022-12-25T03:36:22.618Z,100346.00
2022-12-25T03:42:09.575Z,100343.56
2022-12-25T03:47:35.300Z,100337.69
2022-12-25T03:52:53.162Z,100342.69
2022-12-25T03:58:08.268Z,100321.69
2022-12-25T04:03:23.539Z,100321.69
2022-12-25T04:08:38.769Z,100319.03
2022-12-25T04:13:53.543Z,100309.78
2022-12-25T04:19:08.311Z,100288.84
2022-12-25T04:24:23.529Z,100274.56
2022-12-25T04:29:38.599Z,100285.06
2022-12-25T04:34:53.486Z,100272.59
2022-12-25T04:39:49.781Z,100267.59
2022-12-25T04:44:46.115Z,100262.94
2022-12-25T04:49:42.427Z,100270.59
2022-12-25T04:54:38.866Z,100275.63
2022-12-25T04:59:35.209Z,100269.41
2022-12-25T05:04:31.568Z,100275.22
2022-12-25T05:09:27.982Z,100276.72
2022-12-25T05:14:24.275Z,100271.81
2022-12-25T05:19:20.732Z,100284.53
2022-12-25T05:24:17.084Z,100281.06
2022-12-25T05:29:13.374Z,100277.47
2022-12-25T05:34:09.932Z,100265.94
2022-12-25T05:39:06.293Z,100265.28
2022-12-25T05:44:02.663Z,100268.78
2022-12-25T05:48:58.950Z,100256.00
2022-12-25T05:53:55.231Z,100268.75
2022-12-25T05:58:52.376Z,100259.66
2022-12-25T06:03:48.759Z,100250.03
2022-12-25T06:08:45.230Z,100242.09
2022-12-25T06:13:41.650Z,100235.97
2022-12-25T06:18:39.781Z,100232.91
2022-12-25T06:23:37.282Z,100238.22
2022-12-25T06:28:33.647Z,100236.00
2022-12-25T06:33:30.574Z,100237.31
2022-12-25T06:38:28.140Z,100244.75
2022-12-25T06:43:24.419Z,100246.19
2022-12-25T06:48:20.720Z,100238.13
2022-12-25T06:53:17.049Z,100230.31
2022-12-25T06:58:13.404Z,100217.31
2022-12-25T07:03:19.115Z,100214.25
2022-12-25T07:08:15.479Z,100210.66
2022-12-25T07:13:11.785Z,100200.28
2022-12-25T07:18:08.123Z,100198.38
2022-12-25T07:23:04.417Z,100194.78
2022-12-25T07:28:00.737Z,100178.69
2022-12-25T07:32:57.452Z,100180.41
2022-12-25T07:37:53.740Z,100192.81
2022-12-25T07:42:50.103Z,100198.22
2022-12-25T07:47:46.463Z,100187.41
2022-12-25T07:52:43.951Z,100187.41
2022-12-25T07:57:40.319Z,100170.28
2022-12-25T08:02:36.790Z,100166.13
2022-12-25T08:07:33.350Z,100150.69
2022-12-25T08:12:29.999Z,100164.53
2022-12-25T08:17:26.355Z,100182.63
2022-12-25T08:22:22.628Z,100185.72
2022-12-25T08:27:18.961Z,100190.16
2022-12-25T08:32:15.283Z,100188.25
2022-12-25T08:37:11.639Z,100181.91
2022-12-25T08:42:07.961Z,100172.88
2022-12-25T08:47:04.589Z,100145.63
2022-12-25T08:52:00.974Z,100140.31
2022-12-25T08:57:02.404Z,100141.00
2022-12-25T09:01:59.461Z,100150.84
2022-12-25T09:06:55.892Z,100147.13
2022-12-25T09:11:52.276Z,100151.56
2022-12-25T09:16:51.679Z,100130.69
2022-12-25T09:21:48.425Z,100147.91
2022-12-25T09:26:44.728Z,100147.91
2022-12-25T09:31:41.042Z,100143.88
2022-12-25T09:36:37.392Z,100125.44
2022-12-25T09:41:40.176Z,100107.41
2022-12-25T09:46:45.110Z,100089.75
2022-12-25T09:51:44.138Z,100078.22
2022-12-25T09:56:40.449Z,100067.38
2022-12-25T10:01:48.973Z,100059.78
2022-12-25T10:07:05.952Z,100074.75
2022-12-25T10:12:17.109Z,100072.00
2022-12-25T10:17:36.430Z,100070.19
2022-12-25T10:22:43.793Z,100068.25
2022-12-25T10:27:42.747Z,100071.09
2022-12-25T10:32:39.088Z,100078.81
2022-12-25T10:37:35.391Z,100086.41
2022-12-25T10:42:42.800Z,100073.78
2022-12-25T10:47:42.476Z,100080.16
2022-12-25T10:52:55.408Z,100086.41
2022-12-25T10:57:51.771Z,100056.06
2022-12-25T11:02:48.937Z,100029.97
2022-12-25T11:07:51.153Z,100016.38
2022-12-25T11:12:47.737Z,100029.91
2022-12-25T11:17:49.542Z,100032.72
2022-12-25T11:22:47.937Z,100037.22
2022-12-25T11:27:47.735Z,100032.50
2022-12-25T11:32:55.528Z,100021.53
2022-12-25T11:37:52.592Z,99992.47
2022-12-25T11:42:54.807Z,100003.69
2022-12-25T11:47:56.596Z,99995.34
2022-12-25T11:52:54.166Z,99977.00
2022-12-25T11:57:56.516Z,99968.31
2022-12-25T12:03:01.091Z,99944.78
2022-12-25T12:08:03.737Z,99934.31
2022-12-25T12:13:05.732Z,99926.81
2022-12-25T12:18:17.753Z,99919.59
2022-12-25T12:23:16.679Z,99918.84
2022-12-25T12:28:21.298Z,99923.44
2022-12-25T12:33:20.467Z,99903.19
2022-12-25T12:38:19.903Z,99890.66
2022-12-25T12:43:36.335Z,99895.97
2022-12-25T12:48:41.323Z,99893.44
2022-12-25T12:53:40.012Z,99880.16
2022-12-25T12:58:39.497Z,99869.81
2022-12-25T13:04:07.425Z,99846.19
2022-12-25T13:09:47.237Z,99825.78
2022-12-25T13:14:47.979Z,99827.22
2022-12-25T13:19:45.296Z,99830.88
2022-12-25T13:24:41.667Z,99814.69
2022-12-25T13:29:38.923Z,99811.09
2022-12-25T13:34:40.803Z,99820.25
2022-12-25T13:39:44.426Z,99824.22
2022-12-25T13:44:57.530Z,99827.25
2022-12-25T13:49:56.228Z,99817.84
2022-12-25T13:55:01.275Z,99806.50
2022-12-25T13:59:58.632Z,99804.34
2022-12-25T14:04:55.002Z,99790.31
2022-12-25T14:09:58.045Z,99788.66
2022-12-25T14:14:55.467Z,99793.81
2022-12-25T14:20:04.098Z,99775.41
2022-12-25T14:25:14.491Z,99785.53
2022-12-25T14:30:12.856Z,99776.13
2022-12-25T14:35:11.520Z,99775.88
2022-12-25T14:40:25.145Z,99768.91
2022-12-25T14:45:38.410Z,99761.91
2022-12-25T14:50:43.154Z,99774.91
2022-12-25T14:55:39.597Z,99774.53
2022-12-25T15:00:39.741Z,99777.81
2022-12-25T15:05:39.625Z,99771.75
2022-12-25T15:16:05.687Z,99759.69
2022-12-25T15:21:02.637Z,99758.41
2022-12-25T15:25:58.972Z,99760.09
2022-12-25T15:30:55.528Z,99764.19
2022-12-25T15:35:51.859Z,99761.53
2022-12-25T15:40:48.257Z,99749.34
2022-12-25T15:45:45.441Z,99742.72
2022-12-25T15:50:42.210Z,99749.81
2022-12-25T15:55:39.591Z,99743.56
2022-12-25T16:00:35.908Z,99744.50
2022-12-25T16:05:32.320Z,99749.94
2022-12-25T16:10:34.849Z,99749.31
2022-12-25T16:15:34.685Z,99746.91
2022-12-25T16:20:31.365Z,99723.88
2022-12-25T16:25:27.700Z,99728.28
2022-12-25T16:30:24.337Z,99723.44
2022-12-25T16:35:20.644Z,99722.03
2022-12-25T16:40:17.953Z,99710.44
2022-12-25T16:45:14.425Z,99712.00
2022-12-25T16:50:10.923Z,99701.63
2022-12-25T16:55:07.649Z,99701.38
2022-12-25T17:00:05.509Z,99698.13
2022-12-25T17:05:01.814Z,99693.41
2022-12-25T17:09:58.254Z,99686.19
2022-12-25T17:14:54.608Z,99688.06
2022-12-25T17:19:51.118Z,99680.50
2022-12-25T17:24:47.460Z,99680.69
2022-12-25T17:29:44.002Z,99681.78
2022-12-25T17:34:40.301Z,99677.13
2022-12-25T17:39:36.783Z,99671.31
2022-12-25T17:44:33.070Z,99671.81
2022-12-25T17:49:29.484Z,99661.97
2022-12-25T17:54:25.834Z,99645.19
2022-12-25T17:59:28.278Z,99647.34
2022-12-25T18:04:24.731Z,99659.38
2022-12-25T18:09:21.156Z,99652.97
2022-12-25T18:14:17.828Z,99660.28
2022-12-25T18:19:15.284Z,99666.03
2022-12-25T18:24:11.682Z,99664.59
2022-12-25T18:29:08.128Z,99665.06
2022-12-25T18:34:05.564Z,99665.53
2022-12-25T18:39:01.987Z,99667.94
2022-12-25T18:43:59.682Z,99665.72
2022-12-25T18:48:57.457Z,99660.81
2022-12-25T18:53:54.823Z,99654.63
2022-12-25T18:58:51.318Z,99658.34
2022-12-25T19:03:49.109Z,99653.97
2022-12-25T19:08:46.361Z,99659.28
2022-12-25T19:13:43.270Z,99659.66
2022-12-25T19:18:40.225Z,99663.78
2022-12-25T19:23:40.544Z,99649.09
2022-12-25T19:28:39.557Z,99648.63
2022-12-25T19:33:38.168Z,99642.66
2022-12-25T19:38:34.727Z,99632.59
2022-12-25T19:43:34.848Z,99652.13
2022-12-25T19:48:33.147Z,99649.97
2022-12-25T19:53:30.462Z,99645.75
2022-12-25T19:58:26.834Z,99649.94
2022-12-25T20:03:23.196Z,99661.09
2022-12-25T20:08:19.976Z,99668.69
2022-12-25T20:13:17.096Z,99654.97
2022-12-25T20:18:13.809Z,99669.94
2022-12-25T20:23:10.257Z,99673.34
2022-12-25T20:28:06.794Z,99692.22
2022-12-25T20:33:03.480Z,99703.31
2022-12-25T20:37:59.860Z,99702.19
2022-12-25T20:42:56.239Z,99704.72
2022-12-25T20:47:52.640Z,99709.78
2022-12-25T20:52:53.162Z,99714.25
2022-12-25T20:57:49.514Z,99733.31
2022-12-25T21:02:46.243Z,99738.47
2022-12-25T21:07:42.693Z,99745.59
2022-12-25T21:12:39.055Z,99761.81
2022-12-25T21:17:35.416Z,99748.00
2022-12-25T21:22:32.658Z,99750.66
2022-12-25T21:27:30.267Z,99765.03
2022-12-25T21:32:45.457Z,99763.22
2022-12-25T21:37:41.864Z,99768.56
2022-12-25T21:42:38.296Z,99766.91
2022-12-25T21:48:00.340Z,99762.72
2022-12-25T21:52:51.083Z,99768.28
2022-12-25T21:57:47.606Z,99770.94
2022-12-25T22:02:44.455Z,99771.66
2022-12-25T22:07:40.964Z,99775.28
2022-12-25T22:12:55.892Z,99784.81
2022-12-25T22:18:11.056Z,99789.31
2022-12-25T22:23:07.493Z,99813.94
2022-12-25T22:28:04.038Z,99817.53
2022-12-25T22:33:00.416Z,99804.97
2022-12-25T22:37:56.771Z,99798.56
2022-12-25T22:42:55.069Z,99811.72
2022-12-25T22:47:51.481Z,99819.81
2022-12-25T22:52:47.872Z,99815.47
2022-12-25T22:57:44.207Z,99823.59
2022-12-25T23:02:40.758Z,99826.94
2022-12-25T23:07:37.374Z,99825.13
2022-12-25T23:12:52.236Z,99827.94
2022-12-25T23:18:07.010Z,99841.81
2022-12-25T23:23:22.082Z,99825.97
2022-12-25T23:28:38.514Z,99825.41
2022-12-25T23:33:34.978Z,99827.22
2022-12-25T23:38:31.392Z,99817.31
2022-12-25T23:43:27.879Z,99810.31
2022-12-25T23:48:24.256Z,99824.28
2022-12-25T23:53:20.661Z,99811.00
2022-12-25T23:58:17.021Z,99819.97
